• Join FlightAware (Why Join?)
  • Login
  • US Flag 
02:47AM EDT


 

Airport Tracker/Info


-or-


 

Live Flight TrackerFlight Track Log ✈ UAL1177 ✈ 23-Apr-2013 ✈ KSFO - KSTL

Flight Track Log - Related Links

Times and Time Zones

All times are in EDT time to prevent confusion due to time zone crossing. See the UAL1177 flight status page for this flight to view local times or setup timezone preferences in your user account.

Time Position Orientation Groundspeed Altitude Reporting Facility
EDT Latitude Longitude Course Direction KTS MPH feet Rate Location/Type
03:37PM 37.6500 -122.3500 58° Northeast 179 206 1,700  Level Northern Cal TRACON
03:38PM 37.7000 -122.2833 47° Northeast 237 273 4,400 2,760 Climbing Northern Cal TRACON
03:39PM 37.7267 -122.2461 48° Northeast 254 292 6,300 3,120 Climbing Oakland Center
03:40PM 37.6589 -122.2145 72° East  Level FlightAware Approximate
03:40PM 37.7597 -122.1583 65° Northeast 280 322 9,600  Level Oakland Center
03:41PM 37.7172 -122.0565 70° East  Level FlightAware Approximate
03:41PM 37.7892 -122.0561 70° East 307 353 11,900  Level Oakland Center
03:42PM 37.7696 -121.8941 58° Northeast  Level FlightAware Approximate
03:42PM 37.8217 -121.9425 70° East 338 389 14,800  Level Oakland Center
03:43PM 37.8544 -121.8219 71° East 357 411 17,400 2,520 Climbing Oakland Center
03:44PM 37.8883 -121.6944 71° East 375 432 20,000 2,400 Climbing Oakland Center
03:45PM 37.9156 -121.5589 76° East 393 452 22,400 2,400 Climbing Oakland Center
03:46PM 37.9414 -121.3903 79° East 407 468 25,000 2,160 Climbing Oakland Center
03:47PM 37.9653 -121.2436 78° East 421 484 26,900 1,800 Climbing Oakland Center
03:48PM 37.9889 -121.0903 79° East 440 506 28,700 1,560 Climbing Oakland Center
03:49PM 38.0133 -120.9364 79° East 447 514 30,100 1,320 Climbing Oakland Center
03:50PM 38.0381 -120.7783 79° East 458 527 31,500 1,560 Climbing Oakland Center
03:51PM 38.0625 -120.6192 79° East 462 532 33,300 1,680 Climbing Oakland Center
03:52PM 38.0858 -120.4633 79° East 453 521 35,000 1,320 Climbing Oakland Center
03:53PM 38.1094 -120.3089 79° East 449 517 36,000 1,080 Climbing Oakland Center
03:54PM 38.1364 -120.1242 79° East 444 511 37,200 900 Climbing Oakland Center
03:55PM 38.1600 -119.9711 79° East 443 510 37,900 600 Climbing Oakland Center
03:56PM 38.1825 -119.8150 80° East 447 514 38,500 480 Climbing Oakland Center
03:57PM 38.2058 -119.6567 79° East 455 524 39,000 240 Climbing Oakland Center
03:58PM 38.2278 -119.4947 80° East 462 532 39,000  Level Oakland Center
03:59PM 38.2517 -119.3286 80° East 467 537 39,000  Level Oakland Center
04:00PM 38.2739 -119.1667 80° East 464 534 39,000  Level Oakland Center
04:01PM 38.2967 -119.0047 80° East 465 535 39,000  Level Oakland Center
04:02PM 38.3183 -118.8411 80° East 469 540 39,000  Level Oakland Center
04:03PM 38.3417 -118.6764 80° East 474 545 39,000  Level Oakland Center
04:04PM 38.3681 -118.4775 80° East 477 549 39,000  Level Oakland Center
04:05PM 38.3903 -118.3122 80° East 477 549 39,000  Level Oakland Center
04:06PM 38.4117 -118.1447 81° East 481 554 39,000  Level Oakland Center
04:07PM 38.4356 -117.9628 80° East 483 556 39,000  Level Oakland Center
04:08PM 38.4592 -117.7903 80° East 489 563 39,000  Level Oakland Center
04:09PM 38.4806 -117.6169 81° East 492 566 39,000  Level Oakland Center
04:10PM 38.5022 -117.4406 81° East 497 572 39,000  Level Oakland Center
04:11PM 38.5192 -117.2989 81° East 497 572 39,000  Level Salt Lake Center
04:12PM 38.5175 -117.1153 91° East 511 588 39,000  Level Salt Lake Center
04:13PM 38.5142 -116.9322 91° East 510 587 39,000  Level Salt Lake Center
04:14PM 38.5083 -116.7492 92° East 513 590 39,000  Level Salt Lake Center
04:15PM 38.5050 -116.5661 91° East 514 592 39,000  Level Salt Lake Center
04:16PM 38.5011 -116.3831 91° East 514 592 39,000  Level Salt Lake Center
04:17PM 38.4939 -116.1644 92° East 515 593 39,000  Level Oakland Center
04:18PM 38.4908 -116.0172 91° East 517 595 39,000  Level Salt Lake Center
04:19PM 38.4833 -115.8342 93° East 516 594 39,000  Level Salt Lake Center
04:20PM 38.4778 -115.6522 92° East 514 592 39,000  Level Salt Lake Center
04:21PM 38.4706 -115.4333 92° East 515 593 39,000  Level Salt Lake Center
04:22PM 38.4633 -115.2547 93° East 508 585 39,000  Level Salt Lake Center
04:23PM 38.4569 -115.0725 93° East 512 589 39,000  Level Salt Lake Center
04:24PM 38.4497 -114.8881 93° East 519 597 39,000  Level Salt Lake Center
04:26PM 38.4418 -114.7080 93° East  Level FlightAware Approximate
04:26PM 38.4347 -114.5233 93° East 516 594 39,000  Level Salt Lake Center
04:28PM 38.4261 -114.3414 93° East 515 593 39,000  Level Salt Lake Center
04:29PM 38.4194 -114.1589 93° East 516 594 39,000  Level Salt Lake Center
04:30PM 38.4089 -113.9394 93° East 517 595 39,000  Level Salt Lake Center
04:31PM 38.3997 -113.7558 94° East 519 597 39,000  Level Salt Lake Center
04:32PM 38.3911 -113.5744 93° East 514 592 39,000  Level Salt Lake Center
04:34PM 38.3719 -113.2086 94° East 517 595 39,000  Level Salt Lake Center
04:35PM 38.3633 -113.0242 93° East 520 598 39,000  Level Salt Lake Center
04:36PM 38.3914 -112.8456 79° East 513 590 39,000  Level Salt Lake Center
04:37PM 38.4239 -112.6711 77° East 507 583 39,000  Level Salt Lake Center
04:38PM 38.4564 -112.4933 77° East 512 589 39,000  Level Salt Lake Center
04:39PM 38.4942 -112.2819 77° East 510 587 39,000  Level Salt Lake Center
04:40PM 38.5261 -112.1069 77° East 507 583 39,000  Level Salt Lake Center
04:41PM 38.5561 -111.9325 78° East 504 580 39,000  Level Salt Lake Center
04:42PM 38.5856 -111.7606 78° East 498 573 39,000  Level Salt Lake Center
04:43PM 38.6150 -111.5883 78° East 497 572 39,000  Level Salt Lake Center
04:44PM 38.6453 -111.4186 77° East 492 566 39,000  Level Salt Lake Center
04:45PM 38.6742 -111.2469 78° East 493 567 39,000  Level Salt Lake Center
04:46PM 38.7025 -111.0756 78° East 492 566 39,000  Level Salt Lake Center
04:47PM 38.7353 -110.8894 77° East 494 568 39,000 -660 Level Salt Lake Center
04:48PM 38.7656 -110.6978 78° East 493 567 37,700 -1,020 Descending Salt Lake Center
04:49PM 38.7939 -110.5294 78° East 502 578 37,000 -360 Descending Salt Lake Center
04:50PM 38.8253 -110.3319 78° East 507 583 37,000  Level Salt Lake Center
04:51PM 38.8481 -110.1589 80° East 507 583 37,000  Level Denver Center
04:52PM 38.8783 -109.9950 77° East 503 579 37,000  Level Salt Lake Center
04:53PM 38.9069 -109.7972 79° East 502 578 37,000  Level Denver Center
04:54PM 38.9369 -109.6050 79° East 494 568 37,000  Level Denver Center
04:55PM 38.9614 -109.4372 79° East 494 568 37,000  Level Denver Center
04:56PM 38.9869 -109.2728 79° East 491 565 37,000  Level Denver Center
04:57PM 39.0169 -109.0786 79° East 498 573 37,000  Level Denver Center
04:58PM 39.0408 -108.9139 79° East 492 566 37,000  Level Denver Center
04:59PM 39.0728 -108.7231 78° East 492 566 37,000  Level Denver Center
05:00PM 39.1058 -108.5619 75° East 489 563 37,000  Level Denver Center
05:01PM 39.1456 -108.3744 75° East 489 563 37,000  Level Denver Center
05:02PM 39.1789 -108.2131 75° East 490 564 37,000  Level Denver Center
05:04PM 39.2178 -108.0228 75° East 492 566 37,000  Level Denver Center
05:05PM 39.2514 -107.8564 75° East 500 575 37,000  Level Denver Center
05:06PM 39.2903 -107.6608 76° East 504 580 37,000  Level Denver Center
05:07PM 39.3239 -107.4936 75° East 503 579 37,000  Level Denver Center
05:08PM 39.3619 -107.2964 76° East 508 585 37,000  Level Denver Center
05:09PM 39.3939 -107.1281 76° East 506 582 37,000  Level Denver Center
05:10PM 39.4253 -106.9603 76° East 502 578 37,000  Level Denver Center
05:11PM 39.4575 -106.7608 78° East 506 582 37,000  Level Denver Center
05:12PM 39.4764 -106.5875 82° East 508 585 37,000  Level Denver Center
05:13PM 39.4994 -106.3933 81° East 508 585 37,000  Level Denver Center
05:14PM 39.5203 -106.2128 81° East 507 583 37,000  Level Denver Center
05:15PM 39.5408 -106.0208 82° East 503 579 37,000  Level Denver Center
05:16PM 39.5619 -105.8383 81° East 507 583 37,000 -60 Level Denver Center
05:17PM 39.5822 -105.6542 82° East 511 588 36,900  Descending Denver Center
05:18PM 39.6014 -105.4708 82° East 508 585 37,000  Climbing Denver Center
05:19PM 39.6217 -105.2861 82° East 507 583 37,000 -60 Level Denver Center
05:20PM 39.6414 -105.1019 82° East 504 580 36,900  Descending Denver Center
05:21PM 39.6625 -104.8819 83° East 521 600 37,000  Climbing Denver Center
05:22PM 39.6797 -104.7264 82° East 492 566 37,000  Level Denver Center
05:23PM 39.6819 -104.5311 89° East 512 589 37,000  Level Denver Center
05:24PM 39.6639 -104.3403 97° East 517 595 37,000  Level Denver Center
05:25PM 39.6436 -104.1231 97° East 514 592 37,000  Level Denver Center
05:26PM 39.6256 -103.9372 97° East 521 600 37,000  Level Denver Center
05:27PM 39.6086 -103.7547 97° East 503 579 37,000  Level Denver Center
05:28PM 39.5906 -103.5703 97° East 508 585 37,000  Level Denver Center
05:29PM 39.5717 -103.3850 97° East 513 590 37,000  Level Denver Center
05:30PM 39.5558 -103.2303 98° East 515 593 37,000  Level Denver Center
05:31PM 39.5336 -103.0144 98° East 513 590 37,000  Level Denver Center
05:32PM 39.5139 -102.8283 98° East 518 596 37,000  Level Denver Center
05:33PM 39.4936 -102.6414 98° East 520 598 37,000  Level Denver Center
05:34PM 39.4728 -102.4569 98° East 515 593 37,000  Level Denver Center
05:35PM 39.4517 -102.2519 98° East 518 596 37,000  Level Denver Center
05:36PM 39.4319 -102.0739 98° East 523 602 37,000  Level Denver Center
05:37PM 39.4075 -101.8667 99° East 525 604 37,000  Level Denver Center
05:39PM 39.3872 -101.6911 98° East 518 596 37,000  Level Denver Center
05:40PM 39.3675 -101.4844 97° East 520 598 37,000  Level Denver Center
05:41PM 39.3508 -101.3083 97° East 519 597 37,000  Level Denver Center
05:42PM 39.3294 -101.1042 98° East 518 596 37,000  Level Denver Center
05:43PM 39.3117 -100.9272 97° East 520 598 37,000  Level Denver Center
05:44PM 39.2900 -100.7217 98° East 519 597 37,000  Level Denver Center
05:45PM 39.2725 -100.5442 97° East 522 601 37,000  Level Denver Center
05:46PM 39.2503 -100.3369 98° East 524 603 37,000  Level Denver Center
05:47PM 39.2311 -100.1611 98° East 519 597 37,000  Level Denver Center
05:48PM 39.2097 -99.9714 98° East 522 601 37,000  Level Denver Center
05:49PM 39.1869 -99.7647 98° East 522 601 37,000  Level Denver Center
05:50PM 39.1667 -99.5883 98° East 520 598 37,000  Level Denver Center
05:51PM 39.1456 -99.4108 99° East 521 600 37,000  Level Denver Center
05:52PM 39.1228 -99.2044 98° East 520 598 37,000  Level Denver Center
05:53PM 39.1019 -99.0267 99° East 524 603 37,000  Level Denver Center
05:54PM 39.0764 -98.8164 99° East 518 596 37,000  Level Denver Center
05:54PM 39.0658 -98.7286 99° East 517 595 37,000  Level Kansas City Center
05:56PM 39.0428 -98.5458 99° East 516 594 37,000  Level Kansas City Center
05:57PM 39.0203 -98.3636 99° East 515 593 37,000  Level Kansas City Center
05:58PM 38.9975 -98.1817 99° East 514 592 37,000  Level Kansas City Center
05:59PM 38.9742 -98.0014 99° East 512 589 37,000  Level Kansas City Center
06:00PM 38.9486 -97.8000 99° East 515 593 37,000  Level Kansas City Center
06:01PM 38.9261 -97.6258 99° East 516 594 37,000  Level Kansas City Center
06:02PM 38.8933 -97.4558 104° East 514 592 37,000  Level Kansas City Center
06:03PM 38.8514 -97.2431 104° East 512 589 37,000  Level Kansas City Center
06:04PM 38.8172 -97.0661 104° East 511 588 37,000  Level Kansas City Center
06:05PM 38.7817 -96.8886 104° East 512 589 37,000  Level Kansas City Center
06:06PM 38.7456 -96.7117 105° East 512 589 37,000  Level Kansas City Center
06:07PM 38.7081 -96.5278 105° East 512 589 37,000  Level Kansas City Center
06:08PM 38.6672 -96.3308 105° East 514 592 37,000  Level Kansas City Center
06:09PM 38.6325 -96.1622 105° East 514 592 37,000  Level Kansas City Center
06:10PM 38.5914 -95.9653 105° East 515 593 37,000  Level Kansas City Center
06:11PM 38.5575 -95.7981 104° East 514 592 37,000  Level Kansas City Center
06:12PM 38.5158 -95.6025 105° East 513 590 37,000  Level Kansas City Center
06:13PM 38.4806 -95.4356 105° East 512 589 37,000  Level Kansas City Center
06:14PM 38.4389 -95.2419 105° East 509 586 37,000  Level Kansas City Center
06:15PM 38.4022 -95.0753 106° East 512 589 37,000  Level Kansas City Center
06:16PM 38.3600 -94.8822 106° East 509 586 37,000  Level Kansas City Center
06:17PM 38.3236 -94.7164 106° East 510 587 37,000  Level Kansas City Center
06:18PM 38.2864 -94.5531 106° East 506 582 37,000  Level Kansas City Center
06:19PM 38.2944 -94.3497 87° East 517 595 37,000  Level Kansas City Center
06:20PM 38.3233 -94.1778 78° East 519 597 37,000  Level Kansas City Center
06:21PM 38.3561 -93.9767 78° East 519 597 37,000  Level Kansas City Center
06:22PM 38.3839 -93.7953 79° East 519 597 37,000 -60 Level Kansas City Center
06:23PM 38.4128 -93.6144 78° East 518 596 36,900 -540 Descending Kansas City Center
06:24PM 38.4417 -93.4317 79° East 520 598 35,900 -960 Descending Kansas City Center
06:25PM 38.4714 -93.2481 78° East 524 603 35,000 -480 Descending Kansas City Center
06:27PM 38.5003 -93.0628 79° East 527 606 35,000 -480 Level Kansas City Center
06:28PM 38.5331 -92.8408 79° East 527 606 34,100 -960 Descending Kansas City Center
06:29PM 38.5608 -92.6569 79° East 524 603 33,100 -1,140 Descending Kansas City Center
06:30PM 38.5881 -92.4708 79° East 527 606 31,800 -1,920 Descending Kansas City Center
06:31PM 38.6142 -92.2883 80° East 521 600 29,300 -2,400 Descending Kansas City Center
06:32PM 38.6389 -92.1125 80° East 505 581 27,000 -2,100 Descending Kansas City Center
06:33PM 38.6628 -91.9422 80° East 490 564 25,000 -2,100 Descending Kansas City Center
06:34PM 38.6853 -91.7775 80° East 473 544 22,700 -2,340 Descending Kansas City Center
06:35PM 38.6983 -91.5728 85° East 442 509 20,700 -2,340 Descending FAA TRACON SMA TRACON (SMA)
06:35PM 38.6975 -91.5250 91° East 439 505 20,000 -1,980 Descending FAA TRACON SMA TRACON (SMA)
06:35PM 38.7006 -91.4778 85° East 435 501 19,400 -1,920 Descending FAA TRACON SMA TRACON (SMA)
06:36PM 38.7158 -91.4217 71° East 434 499 18,700 -1,980 Descending FAA TRACON SMA TRACON (SMA)
06:36PM 38.7281 -91.3769 71° East 437 503 18,100 -2,040 Descending FAA TRACON SMA TRACON (SMA)
06:36PM 38.7408 -91.3328 70° East 430 495 17,400 -2,100 Descending FAA TRACON SMA TRACON (SMA)
06:37PM 38.7556 -91.2783 71° East 426 490 16,700 -2,100 Descending FAA TRACON SMA TRACON (SMA)
06:37PM 38.7678 -91.2347 70° East 425 489 16,000 -1,500 Descending FAA TRACON SMA TRACON (SMA)
06:37PM 38.7808 -91.1914 69° East 422 486 15,700 -1,080 Descending FAA TRACON SMA TRACON (SMA)
06:38PM 38.7947 -91.1364 72° East 424 488 15,300 -1,200 Descending FAA TRACON SMA TRACON (SMA)
06:38PM 38.8067 -91.0933 70° East 424 488 14,900 -1,320 Descending FAA TRACON SMA TRACON (SMA)
06:38PM 38.8194 -91.0503 69° East 419 482 14,400 -1,800 Descending FAA TRACON SMA TRACON (SMA)
06:39PM 38.8339 -90.9975 71° East 415 478 13,700 -1,980 Descending FAA TRACON SMA TRACON (SMA)
06:39PM 38.8444 -90.9561 72° East 406 467 13,100 -1,500 Descending FAA TRACON SMA TRACON (SMA)
06:39PM 38.8564 -90.9147 70° East 403 464 12,700 -1,260 Descending FAA TRACON SMA TRACON (SMA)
06:40PM 38.8689 -90.8733 69° East 401 461 12,300 -1,500 Descending FAA TRACON SMA TRACON (SMA)
06:40PM 38.8811 -90.8239 72° East 389 448 11,700 -1,800 Descending FAA TRACON SMA TRACON (SMA)
06:40PM 38.8925 -90.7842 70° East 383 441 11,100 -1,320 Descending FAA TRACON SMA TRACON (SMA)
06:41PM 38.9006 -90.7450 75° East 379 436 10,900 -600 Descending FAA TRACON SMA TRACON (SMA)
06:41PM 38.9069 -90.6964 80° East 363 418 10,700 -780 Descending FAA TRACON SMA TRACON (SMA)
06:41PM 38.9108 -90.6594 82° East 349 402 10,400 -1,080 Descending FAA TRACON SMA TRACON (SMA)
06:42PM 38.9139 -90.6228 84° East 341 392 10,000 -1,200 Descending FAA TRACON SMA TRACON (SMA)
06:42PM 38.9169 -90.5769 85° East 336 387 9,600 -1,200 Descending FAA TRACON SMA TRACON (SMA)
06:42PM 38.9164 -90.5419 91° East 328 377 9,200 -900 Descending FAA TRACON SMA TRACON (SMA)
06:43PM 38.9097 -90.5089 105° East 318 366 9,000 -360 Descending FAA TRACON SMA TRACON (SMA)
06:43PM 38.8989 -90.4692 109° East 306 352 9,000  Level FAA TRACON SMA TRACON (SMA)
06:43PM 38.8889 -90.4389 113° Southeast 302 348 9,000 -540 Level FAA TRACON SMA TRACON (SMA)
06:44PM 38.8672 -90.3692 112° Southeast 302 348 8,500 -900 Descending FAA TRACON SMA TRACON (SMA)
06:44PM 38.8567 -90.3381 114° Southeast 309 356 8,100 -780 Descending FAA TRACON SMA TRACON (SMA)
06:45PM 38.8467 -90.3072 113° Southeast 307 353 8,000 -180 Descending FAA TRACON SMA TRACON (SMA)
06:45PM 38.8344 -90.2694 113° Southeast 301 346 8,000 -780 Level FAA TRACON SMA TRACON (SMA)
06:45PM 38.8244 -90.2397 113° Southeast 295 339 7,500 -1,500 Descending FAA TRACON SMA TRACON (SMA)
06:46PM 38.8142 -90.2106 114° Southeast 293 337 7,000 -1,200 Descending FAA TRACON SMA TRACON (SMA)
06:46PM 38.8039 -90.1819 115° Southeast 288 331 6,700 -1,080 Descending FAA TRACON SMA TRACON (SMA)
06:46PM 38.7922 -90.1486 114° Southeast 270 311 6,300 -780 Descending FAA TRACON SMA TRACON (SMA)
06:47PM 38.7811 -90.1261 122° Southeast 251 289 6,200 -300 Descending FAA TRACON SMA TRACON (SMA)
06:47PM 38.7711 -90.1064 123° Southeast 226 260 6,100 -1,080 Descending FAA TRACON SMA TRACON (SMA)
06:47PM 38.7594 -90.0844 124° Southeast 200 230 5,500 -1,620 Descending FAA TRACON SMA TRACON (SMA)
06:48PM 38.7447 -90.0783 162° South 194 223 5,000 -1,980 Descending FAA TRACON SMA TRACON (SMA)
06:48PM 38.7306 -90.0844 199° South 186 214 4,200 -2,160 Descending FAA TRACON SMA TRACON (SMA)
06:48PM 38.7131 -90.0964 208° Southwest 182 209 3,600 -1,080 Descending FAA TRACON SMA TRACON (SMA)
06:49PM 38.6997 -90.1047 206° Southwest 180 207 3,500 -480 Descending FAA TRACON SMA TRACON (SMA)
06:49PM 38.6869 -90.1125 205° Southwest 169 194 3,300 -600 Descending FAA TRACON SMA TRACON (SMA)